createdAt,value
2018-07-08T00:00:34.463Z,1034.83
2018-07-08T00:01:34.456Z,1034.84
2018-07-08T00:02:34.450Z,1034.82
2018-07-08T00:03:34.447Z,1034.84
2018-07-08T00:04:34.439Z,1034.79
2018-07-08T00:05:34.435Z,1034.75
2018-07-08T00:06:34.430Z,1034.75
2018-07-08T00:07:34.425Z,1034.74
2018-07-08T00:08:34.424Z,1034.69
2018-07-08T00:09:34.417Z,1034.69
2018-07-08T00:10:34.412Z,1034.7
2018-07-08T00:11:34.411Z,1034.65
2018-07-08T00:12:34.403Z,1034.58
2018-07-08T00:13:34.399Z,1034.55
2018-07-08T00:14:34.398Z,1034.56
2018-07-08T00:15:34.393Z,1034.5
2018-07-08T00:16:34.388Z,1034.5
2018-07-08T00:17:34.383Z,1034.5
2018-07-08T00:18:34.379Z,1034.47
2018-07-08T00:19:34.372Z,1034.41
2018-07-08T00:20:34.372Z,1034.41
2018-07-08T00:21:34.365Z,1034.42
2018-07-08T00:22:34.360Z,1034.38
2018-07-08T00:23:34.356Z,1034.35
2018-07-08T00:24:34.354Z,1034.37
2018-07-08T00:25:34.347Z,1034.35
2018-07-08T00:26:34.593Z,1034.31
2018-07-08T00:27:34.338Z,1034.32
2018-07-08T00:28:34.334Z,1034.35
2018-07-08T00:29:34.329Z,1034.3
2018-07-08T00:30:34.325Z,1034.29
2018-07-08T00:31:34.325Z,1034.31
2018-07-08T00:32:34.317Z,1034.32
2018-07-08T00:33:34.312Z,1034.28
2018-07-08T00:34:34.308Z,1034.2
2018-07-08T00:35:34.305Z,1034.23
2018-07-08T00:36:34.304Z,1034.22
2018-07-08T00:37:34.296Z,1034.2
2018-07-08T00:38:34.292Z,1034.22
2018-07-08T00:39:34.288Z,1034.23
2018-07-08T00:40:34.283Z,1034.22
2018-07-08T00:41:34.279Z,1034.25
2018-07-08T00:42:34.274Z,1034.27
2018-07-08T00:43:34.271Z,1034.25
2018-07-08T00:44:34.266Z,1034.24
2018-07-08T00:45:34.262Z,1034.25
2018-07-08T00:46:34.259Z,1034.23
2018-07-08T00:47:34.259Z,1034.22
2018-07-08T00:48:34.267Z,1034.26
2018-07-08T00:49:34.246Z,1034.28
2018-07-08T00:50:34.242Z,1034.29
2018-07-08T00:51:34.238Z,1034.29
2018-07-08T00:52:34.236Z,1034.32
2018-07-08T00:53:34.229Z,1034.31
2018-07-08T00:54:34.225Z,1034.33
2018-07-08T00:55:34.220Z,1034.38
2018-07-08T00:56:34.217Z,1034.41
2018-07-08T00:57:34.214Z,1034.46
2018-07-08T00:58:34.257Z,1034.51
2018-07-08T00:59:34.206Z,1034.49
2018-07-08T01:00:34.210Z,1034.52
2018-07-08T01:01:34.208Z,1034.56
2018-07-08T01:02:34.193Z,1034.58
2018-07-08T01:03:34.188Z,1034.57
2018-07-08T01:04:34.183Z,1034.56
2018-07-08T01:05:34.189Z,1034.56
2018-07-08T01:06:34.174Z,1034.59
2018-07-08T01:07:34.170Z,1034.57
2018-07-08T01:08:34.169Z,1034.59
2018-07-08T01:09:34.161Z,1034.54
2018-07-08T01:10:34.171Z,1034.5
2018-07-08T01:11:34.153Z,1034.54
2018-07-08T01:12:34.151Z,1034.49
2018-07-08T01:13:34.154Z,1034.5
2018-07-08T01:14:34.155Z,1034.5
2018-07-08T01:15:34.139Z,1034.49
2018-07-08T01:16:34.132Z,1034.56
2018-07-08T01:17:34.127Z,1034.52
2018-07-08T01:18:34.123Z,1034.57
2018-07-08T01:19:34.118Z,1034.62
2018-07-08T01:20:34.116Z,1034.62
2018-07-08T01:21:34.110Z,1034.67
2018-07-08T01:22:34.105Z,1034.63
2018-07-08T01:23:34.101Z,1034.68
2018-07-08T01:24:34.096Z,1034.67
2018-07-08T01:25:34.092Z,1034.71
2018-07-08T01:26:34.088Z,1034.71
2018-07-08T01:27:34.084Z,1034.74
2018-07-08T01:28:34.079Z,1034.72
2018-07-08T01:29:34.075Z,1034.76
2018-07-08T01:30:34.074Z,1034.74
2018-07-08T01:31:34.065Z,1034.77
2018-07-08T01:32:34.064Z,1034.76
2018-07-08T01:33:34.057Z,1034.77
2018-07-08T01:34:34.053Z,1034.76
2018-07-08T01:35:34.048Z,1034.76
2018-07-08T01:36:34.044Z,1034.76
2018-07-08T01:37:34.039Z,1034.78
2018-07-08T01:38:34.037Z,1034.73
2018-07-08T01:39:34.030Z,1034.74
2018-07-08T01:40:34.027Z,1034.74
2018-07-08T01:41:34.021Z,1034.73
2018-07-08T01:42:34.016Z,1034.77
2018-07-08T01:43:34.012Z,1034.74
2018-07-08T01:44:34.022Z,1034.76
2018-07-08T01:45:34.004Z,1034.76
2018-07-08T01:46:34.003Z,1034.76
2018-07-08T01:47:33.993Z,1034.76
2018-07-08T01:48:33.989Z,1034.77
2018-07-08T01:49:33.986Z,1034.77
2018-07-08T01:50:33.980Z,1034.78
2018-07-08T01:51:33.977Z,1034.8
2018-07-08T01:52:33.973Z,1034.79
2018-07-08T01:53:33.967Z,1034.81
2018-07-08T01:54:33.964Z,1034.81
2018-07-08T01:55:33.963Z,1034.84
2018-07-08T01:56:33.954Z,1034.83
2018-07-08T01:57:33.948Z,1034.81
2018-07-08T01:58:33.956Z,1034.87
2018-07-08T01:59:33.947Z,1034.86
2018-07-08T02:00:33.935Z,1034.84
2018-07-08T02:01:33.931Z,1034.84
2018-07-08T02:02:33.926Z,1034.85
2018-07-08T02:03:33.923Z,1034.85
2018-07-08T02:04:33.917Z,1034.86
2018-07-08T02:05:33.912Z,1034.87
2018-07-08T02:06:33.912Z,1034.87
2018-07-08T02:07:33.904Z,1034.86
2018-07-08T02:08:33.921Z,1034.86
2018-07-08T02:09:33.894Z,1034.83
2018-07-08T02:10:33.890Z,1034.83
2018-07-08T02:11:33.884Z,1034.84
2018-07-08T02:12:33.882Z,1034.84
2018-07-08T02:13:33.875Z,1034.8
2018-07-08T02:14:33.871Z,1034.84
2018-07-08T02:15:33.866Z,1034.82
2018-07-08T02:16:33.861Z,1034.85
2018-07-08T02:17:33.858Z,1034.87
2018-07-08T02:18:33.853Z,1034.92
2018-07-08T02:19:33.847Z,1034.94
2018-07-08T02:20:33.846Z,1034.98
2018-07-08T02:21:33.839Z,1034.99
2018-07-08T02:22:33.833Z,1035.04
2018-07-08T02:23:33.828Z,1035.02
2018-07-08T02:24:33.824Z,1035.05
2018-07-08T02:25:33.819Z,1035.1
2018-07-08T02:26:33.814Z,1035.04
2018-07-08T02:27:33.809Z,1035.05
2018-07-08T02:28:33.805Z,1035.08
2018-07-08T02:29:33.801Z,1035.07
2018-07-08T02:30:33.795Z,1035.11
2018-07-08T02:31:33.792Z,1035.1
2018-07-08T02:32:33.786Z,1035.04
2018-07-08T02:33:33.781Z,1035.05
2018-07-08T02:34:33.776Z,1035.08
2018-07-08T02:35:33.781Z,1035.05
2018-07-08T02:36:33.767Z,1035.03
2018-07-08T02:37:33.762Z,1035.09
2018-07-08T02:38:33.757Z,1035.06
2018-07-08T02:39:33.762Z,1035.07
2018-07-08T02:40:33.747Z,1035.12
2018-07-08T02:41:33.742Z,1035.13
2018-07-08T02:42:33.738Z,1035.12
2018-07-08T02:43:33.733Z,1035.08
2018-07-08T02:44:33.728Z,1035.08
2018-07-08T02:45:33.729Z,1035.03
2018-07-08T02:46:33.718Z,1035.05
2018-07-08T02:47:33.723Z,1035.04
2018-07-08T02:48:33.712Z,1035.02
2018-07-08T02:49:33.708Z,1034.97
2018-07-08T02:50:33.699Z,1034.93
2018-07-08T02:51:33.699Z,1034.92
2018-07-08T02:52:33.688Z,1034.89
2018-07-08T02:53:33.691Z,1034.89
2018-07-08T02:54:33.680Z,1034.83
2018-07-08T02:55:33.674Z,1034.89
2018-07-08T02:56:33.670Z,1034.83
2018-07-08T02:57:33.664Z,1034.79
2018-07-08T02:58:33.661Z,1034.78
2018-07-08T02:59:33.655Z,1034.78
2018-07-08T03:00:33.650Z,1034.8
2018-07-08T03:01:33.645Z,1034.73
2018-07-08T03:02:33.641Z,1034.76
2018-07-08T03:03:33.636Z,1034.77
2018-07-08T03:04:33.631Z,1034.74
2018-07-08T03:05:33.627Z,1034.75
2018-07-08T03:06:33.621Z,1034.69
2018-07-08T03:07:33.616Z,1034.73
2018-07-08T03:08:33.613Z,1034.7
2018-07-08T03:09:33.609Z,1034.69
2018-07-08T03:10:33.602Z,1034.66
2018-07-08T03:11:33.598Z,1034.67
2018-07-08T03:12:33.593Z,1034.65
2018-07-08T03:13:33.589Z,1034.62
2018-07-08T03:14:33.584Z,1034.64
2018-07-08T03:15:33.579Z,1034.69
2018-07-08T03:16:33.575Z,1034.66
2018-07-08T03:17:33.572Z,1034.66
2018-07-08T03:18:33.565Z,1034.62
2018-07-08T03:19:33.561Z,1034.68
2018-07-08T03:20:33.561Z,1034.7
2018-07-08T03:21:33.552Z,1034.76
2018-07-08T03:22:33.552Z,1034.74
2018-07-08T03:23:33.542Z,1034.77
2018-07-08T03:24:33.538Z,1034.81
2018-07-08T03:25:33.534Z,1034.82
2018-07-08T03:26:33.529Z,1034.87
2018-07-08T03:27:33.530Z,1034.87
2018-07-08T03:28:33.521Z,1034.86
2018-07-08T03:29:33.515Z,1034.9
2018-07-08T03:30:33.512Z,1034.91
2018-07-08T03:31:33.507Z,1034.91
2018-07-08T03:32:33.502Z,1034.95
2018-07-08T03:33:33.563Z,1034.95
2018-07-08T03:34:33.493Z,1034.97
2018-07-08T03:35:33.488Z,1034.93
2018-07-08T03:36:33.483Z,1034.93
2018-07-08T03:37:33.479Z,1034.92
2018-07-08T03:38:33.474Z,1034.88
2018-07-08T03:39:33.474Z,1034.84
2018-07-08T03:40:33.464Z,1034.81
2018-07-08T03:41:33.463Z,1034.72
2018-07-08T03:42:33.496Z,1034.67
2018-07-08T03:43:33.450Z,1034.59
2018-07-08T03:44:33.446Z,1034.6
2018-07-08T03:45:33.443Z,1034.53
2018-07-08T03:46:33.439Z,1034.49
2018-07-08T03:47:33.433Z,1034.31
2018-07-08T03:48:33.428Z,1034.21
2018-07-08T03:49:33.424Z,1034.09
2018-07-08T03:50:33.419Z,1033.96
2018-07-08T03:51:33.415Z,1033.84
2018-07-08T03:52:33.410Z,1033.71
2018-07-08T03:53:33.407Z,1033.55
2018-07-08T03:54:33.402Z,1033.46
2018-07-08T03:55:33.398Z,1033.3
2018-07-08T03:56:33.398Z,1033.21
2018-07-08T03:57:33.390Z,1033.06
2018-07-08T03:58:33.387Z,1032.88
2018-07-08T03:59:33.384Z,1032.81
2018-07-08T04:00:33.381Z,1032.68
2018-07-08T04:01:33.376Z,1032.61
2018-07-08T04:02:33.372Z,1032.47
2018-07-08T04:03:33.369Z,1032.44
2018-07-08T04:04:33.617Z,1032.37
2018-07-08T04:05:33.363Z,1032.28
2018-07-08T04:06:33.360Z,1032.27
2018-07-08T04:07:33.358Z,1032.18
2018-07-08T04:08:33.355Z,1032.14
2018-07-08T04:09:33.353Z,1032.05
2018-07-08T04:10:33.350Z,1032.07
2018-07-08T04:11:33.349Z,1032.16
2018-07-08T04:12:33.346Z,1032.28
2018-07-08T04:13:33.344Z,1032.4
2018-07-08T04:14:33.342Z,1032.45
2018-07-08T04:15:33.346Z,1032.49
2018-07-08T04:16:33.338Z,1032.57
2018-07-08T04:17:33.337Z,1032.58
2018-07-08T04:18:33.334Z,1032.36
2018-07-08T04:19:33.331Z,1032.15
2018-07-08T04:20:33.331Z,1031.86
2018-07-08T04:21:33.329Z,1031.92
2018-07-08T04:22:33.332Z,1032
2018-07-08T04:23:33.326Z,1031.99
2018-07-08T04:24:33.325Z,1032.11
2018-07-08T04:25:33.327Z,1032.18
2018-07-08T04:26:33.323Z,1032.25
2018-07-08T04:27:33.321Z,1032.26
2018-07-08T04:28:33.321Z,1032.23
2018-07-08T04:29:33.320Z,1032.26
2018-07-08T04:30:33.318Z,1032.28
2018-07-08T04:31:33.316Z,1032.36
2018-07-08T04:32:33.315Z,1032.43
2018-07-08T04:33:33.316Z,1032.51
2018-07-08T04:34:33.313Z,1032.57
2018-07-08T04:35:33.312Z,1032.66
2018-07-08T04:36:33.311Z,1032.58
2018-07-08T04:37:33.310Z,1032.52
2018-07-08T04:38:33.308Z,1032.51
2018-07-08T04:39:33.308Z,1032.51
2018-07-08T04:40:33.306Z,1032.5
2018-07-08T04:41:33.304Z,1032.48
2018-07-08T04:42:33.303Z,1032.45
2018-07-08T04:43:33.304Z,1032.51
2018-07-08T04:44:33.302Z,1032.62
2018-07-08T04:45:33.300Z,1032.67
2018-07-08T04:46:33.304Z,1032.69
2018-07-08T04:47:33.296Z,1032.69
2018-07-08T04:48:33.297Z,1032.73
2018-07-08T04:49:33.295Z,1032.79
2018-07-08T04:50:33.295Z,1032.84
2018-07-08T04:51:33.292Z,1032.89
2018-07-08T04:52:33.290Z,1032.94
2018-07-08T04:53:33.288Z,1032.94
2018-07-08T04:54:33.287Z,1032.92
2018-07-08T04:55:33.286Z,1032.81
2018-07-08T04:56:33.284Z,1032.77
2018-07-08T04:57:33.283Z,1032.59
2018-07-08T04:58:33.283Z,1032.32
2018-07-08T04:59:33.283Z,1032.11
2018-07-08T05:00:33.281Z,1032.09
2018-07-08T05:01:33.280Z,1031.99
2018-07-08T05:02:33.279Z,1032
2018-07-08T05:03:33.277Z,1031.99
2018-07-08T05:04:33.276Z,1031.99
2018-07-08T05:05:33.276Z,1031.95
2018-07-08T05:06:33.319Z,1031.84
2018-07-08T05:07:33.274Z,1031.79
2018-07-08T05:08:33.273Z,1031.62
2018-07-08T05:09:33.274Z,1031.58
2018-07-08T05:10:33.272Z,1031.47
2018-07-08T05:11:33.271Z,1031.3
2018-07-08T05:12:33.271Z,1031.17
2018-07-08T05:13:33.272Z,1031.22
2018-07-08T05:14:33.272Z,1031.4
2018-07-08T05:15:33.271Z,1031.17
2018-07-08T05:16:33.273Z,1030.81
2018-07-08T05:17:33.283Z,1030.59
2018-07-08T05:18:33.273Z,1030.49
2018-07-08T05:19:33.275Z,1030.72
2018-07-08T05:20:33.277Z,1030.48
2018-07-08T05:21:33.279Z,1030.26
2018-07-08T05:22:33.283Z,1030
2018-07-08T05:23:33.284Z,1029.75
2018-07-08T05:24:33.286Z,1029.34
2018-07-08T05:25:33.291Z,1029.34
2018-07-08T05:26:33.295Z,1029.64
2018-07-08T05:27:33.296Z,1029.74
2018-07-08T05:28:33.300Z,1029.85
2018-07-08T05:29:33.303Z,1030.15
2018-07-08T05:30:33.307Z,1030.42
2018-07-08T05:31:33.312Z,1030.7
2018-07-08T05:32:33.316Z,1030.92
2018-07-08T05:33:33.319Z,1031.21
2018-07-08T05:34:33.324Z,1031.28
2018-07-08T05:35:33.346Z,1031.41
2018-07-08T05:36:33.332Z,1031.07
2018-07-08T05:37:33.338Z,1030.93
2018-07-08T05:38:33.340Z,1031.17
2018-07-08T05:39:33.344Z,1031.01
2018-07-08T05:40:33.347Z,1030.79
2018-07-08T05:41:33.352Z,1030.93
2018-07-08T05:42:33.356Z,1030.95
2018-07-08T05:43:33.359Z,1030.96
2018-07-08T05:44:33.363Z,1031.02
2018-07-08T05:45:33.367Z,1031.15
2018-07-08T05:46:33.371Z,1031.24
2018-07-08T05:47:33.374Z,1031.37
2018-07-08T05:48:33.377Z,1031.47
2018-07-08T05:49:33.382Z,1031.76
2018-07-08T05:50:33.433Z,1031.77
2018-07-08T05:51:33.389Z,1031.86
2018-07-08T05:52:33.392Z,1031.58
2018-07-08T05:53:33.396Z,1030.84
2018-07-08T05:54:33.400Z,1030.75
2018-07-08T05:55:33.405Z,1030.9
2018-07-08T05:56:33.409Z,1030.54
2018-07-08T05:57:33.410Z,1029.81
2018-07-08T05:58:33.415Z,1029.91
2018-07-08T05:59:33.417Z,1029.9
2018-07-08T06:00:33.422Z,1029.88
2018-07-08T06:01:33.428Z,1030.27
2018-07-08T06:02:33.430Z,1029.94
2018-07-08T06:03:33.436Z,1029.53
2018-07-08T06:04:33.498Z,1029.67
2018-07-08T06:05:33.445Z,1029.77
2018-07-08T06:06:33.450Z,1029.88
2018-07-08T06:07:33.455Z,1030.02
2018-07-08T06:08:33.461Z,1030.2
2018-07-08T06:09:33.465Z,1030.27
2018-07-08T06:10:33.470Z,1030.22
2018-07-08T06:11:33.476Z,1030.34
2018-07-08T06:12:33.480Z,1030.48
2018-07-08T06:13:33.484Z,1030.65
2018-07-08T06:14:33.492Z,1030.82
2018-07-08T06:15:33.495Z,1030.97
2018-07-08T06:16:33.499Z,1031.12
2018-07-08T06:17:33.504Z,1031.26
2018-07-08T06:18:33.508Z,1031.33
2018-07-08T06:19:33.512Z,1031.46
2018-07-08T06:20:33.518Z,1031.54
2018-07-08T06:21:33.566Z,1031.6
2018-07-08T06:22:33.524Z,1031.75
2018-07-08T06:23:33.528Z,1031.81
2018-07-08T06:24:33.534Z,1031.9
2018-07-08T06:25:33.535Z,1031.98
2018-07-08T06:26:33.538Z,1031.99
2018-07-08T06:27:33.540Z,1032.1
2018-07-08T06:28:33.546Z,1032.16
2018-07-08T06:29:33.547Z,1032.19
2018-07-08T06:30:33.550Z,1032.31
2018-07-08T06:31:33.552Z,1032.39
2018-07-08T06:32:33.557Z,1032.38
2018-07-08T06:33:33.560Z,1032.42
2018-07-08T06:34:33.560Z,1032.42
2018-07-08T06:35:33.563Z,1032.47
2018-07-08T06:36:33.566Z,1032.43
2018-07-08T06:37:33.568Z,1032.37
2018-07-08T06:38:33.570Z,1032.32
2018-07-08T06:39:33.571Z,1032.37
2018-07-08T06:40:33.823Z,1032.42
2018-07-08T06:41:33.576Z,1032.43
2018-07-08T06:42:33.578Z,1032.45
2018-07-08T06:43:33.578Z,1032.46
2018-07-08T06:44:33.579Z,1032.41
2018-07-08T06:45:33.593Z,1032.39
2018-07-08T06:46:33.582Z,1032.39
2018-07-08T06:47:33.583Z,1032.41
2018-07-08T06:48:33.585Z,1032.3
2018-07-08T06:49:33.585Z,1032.17
2018-07-08T06:50:33.590Z,1032.1
2018-07-08T06:51:33.589Z,1032.04
2018-07-08T06:52:33.591Z,1031.96
2018-07-08T06:53:33.591Z,1031.85
2018-07-08T06:54:33.592Z,1031.89
2018-07-08T06:55:33.595Z,1031.88
2018-07-08T06:56:33.600Z,1031.86
2018-07-08T06:57:33.596Z,1031.83
2018-07-08T06:58:33.598Z,1031.9
2018-07-08T06:59:33.600Z,1031.91
2018-07-08T07:00:33.601Z,1031.93
2018-07-08T07:01:33.603Z,1031.82
2018-07-08T07:02:33.604Z,1031.69
2018-07-08T07:03:33.606Z,1031.74
2018-07-08T07:04:33.606Z,1031.6
2018-07-08T07:05:33.610Z,1030.89
2018-07-08T07:06:33.611Z,1030.66
2018-07-08T07:07:33.615Z,1030.75
2018-07-08T07:08:33.616Z,1030.66
2018-07-08T07:09:33.618Z,1030.27
2018-07-08T07:10:33.621Z,1029.84
2018-07-08T07:11:33.623Z,1029.7
2018-07-08T07:12:33.627Z,1029.72
2018-07-08T07:13:33.631Z,1029.96
2018-07-08T07:14:33.642Z,1030.2
2018-07-08T07:15:33.636Z,1030.03
2018-07-08T07:16:33.642Z,1029.98
2018-07-08T07:17:33.823Z,1029.87
2018-07-08T07:18:33.651Z,1030.2
2018-07-08T07:19:33.653Z,1030.43
2018-07-08T07:20:33.658Z,1029.89
2018-07-08T07:21:33.663Z,1029.59
2018-07-08T07:22:33.667Z,1029.77
2018-07-08T07:23:33.672Z,1029.73
2018-07-08T07:24:33.681Z,1029.2
2018-07-08T07:25:33.682Z,1029.24
2018-07-08T07:26:33.687Z,1029.26
2018-07-08T07:27:33.693Z,1029.52
2018-07-08T07:28:33.760Z,1029.43
2018-07-08T07:29:33.705Z,1029.46
2018-07-08T07:30:33.718Z,1029.13
2018-07-08T07:31:33.717Z,1028.99
2018-07-08T07:32:33.727Z,1029.09
2018-07-08T07:33:33.729Z,1028.82
2018-07-08T07:34:33.736Z,1028.73
2018-07-08T07:35:33.743Z,1028.87
2018-07-08T07:36:33.750Z,1028.99
2018-07-08T07:37:33.756Z,1029.17
2018-07-08T07:38:33.762Z,1029.26
2018-07-08T07:39:33.771Z,1029.46
2018-07-08T07:40:33.777Z,1029.54
2018-07-08T07:41:33.786Z,1029.33
2018-07-08T07:42:33.792Z,1029.2
2018-07-08T07:43:33.799Z,1029.16
2018-07-08T07:44:33.805Z,1029.25
2018-07-08T07:45:33.936Z,1029.31
2018-07-08T07:46:33.820Z,1029.31
2018-07-08T07:47:33.828Z,1028.32
2018-07-08T07:48:33.835Z,1028.67
2018-07-08T07:49:33.843Z,1027.59
2018-07-08T07:50:33.851Z,1027.93
2018-07-08T07:51:33.859Z,1028.09
2018-07-08T07:52:33.878Z,1027.47
2018-07-08T07:53:33.883Z,1027.79
2018-07-08T07:54:33.886Z,1028.1
2018-07-08T07:55:33.894Z,1028.37
2018-07-08T07:56:33.903Z,1028.5
2018-07-08T07:57:33.911Z,1028.4
2018-07-08T07:58:33.922Z,1028.78
2018-07-08T07:59:33.930Z,1027.92
2018-07-08T08:00:33.942Z,1027.81
2018-07-08T08:01:33.950Z,1028.08
2018-07-08T08:02:33.966Z,1028.05
2018-07-08T08:03:33.969Z,1028.09
2018-07-08T08:04:33.977Z,1027.58
2018-07-08T08:05:33.988Z,1028.08
2018-07-08T08:06:34.001Z,1027.24
2018-07-08T08:07:34.008Z,1026.67
2018-07-08T08:08:34.037Z,1027.03
2018-07-08T08:09:34.030Z,1027.29
2018-07-08T08:10:34.040Z,1027.43
2018-07-08T08:11:34.051Z,1027.33
2018-07-08T08:12:34.062Z,1027.33
2018-07-08T08:13:34.072Z,1027.67
2018-07-08T08:14:34.084Z,1027.08
2018-07-08T08:15:34.102Z,1027.18
2018-07-08T08:16:34.112Z,1027.05
2018-07-08T08:17:34.118Z,1027.08
2018-07-08T08:18:34.129Z,1027.52
2018-07-08T08:19:34.140Z,1027.99
2018-07-08T08:20:34.152Z,1028.31
2018-07-08T08:21:34.163Z,1028.6
2018-07-08T08:22:34.175Z,1028.92
2018-07-08T08:23:34.190Z,1029.18
2018-07-08T08:24:34.196Z,1029.56
2018-07-08T08:25:34.210Z,1029.82
2018-07-08T08:26:34.242Z,1030.05
2018-07-08T08:27:34.230Z,1030.08
2018-07-08T08:28:34.245Z,1030.1
2018-07-08T08:29:34.248Z,1030.08
2018-07-08T08:30:34.259Z,1030.06
2018-07-08T08:31:34.267Z,1030.13
2018-07-08T08:32:34.280Z,1030.32
2018-07-08T08:33:34.294Z,1030.38
2018-07-08T08:34:34.297Z,1030.37
2018-07-08T08:35:34.305Z,1030.4
2018-07-08T08:36:34.316Z,1030.57
2018-07-08T08:37:34.326Z,1030.56
2018-07-08T08:38:34.332Z,1030.62
2018-07-08T08:39:34.340Z,1030.58
2018-07-08T08:40:34.349Z,1030.54
2018-07-08T08:41:34.358Z,1030.5
2018-07-08T08:42:34.365Z,1030.32
2018-07-08T08:43:34.373Z,1030.28
2018-07-08T08:44:34.383Z,1029.94
2018-07-08T08:45:34.392Z,1029.84
2018-07-08T08:46:34.404Z,1029.65
2018-07-08T08:47:34.406Z,1029.29
2018-07-08T08:48:34.415Z,1029.3
2018-07-08T08:49:34.424Z,1029.24
2018-07-08T08:50:34.431Z,1029.39
2018-07-08T08:51:34.440Z,1029.63
2018-07-08T08:52:34.481Z,1029.83
2018-07-08T08:53:34.464Z,1029.89
2018-07-08T08:54:34.464Z,1029.85
2018-07-08T08:55:34.473Z,1029.48
2018-07-08T08:56:34.482Z,1028.9
2018-07-08T08:57:34.489Z,1028.85
2018-07-08T08:58:34.500Z,1028.27
2018-07-08T08:59:34.508Z,1028.26
2018-07-08T09:00:34.516Z,1028.44
2018-07-08T09:01:34.525Z,1028.64
2018-07-08T09:02:34.536Z,1028.86
2018-07-08T09:03:34.543Z,1029.06
2018-07-08T09:04:34.558Z,1029.15
2018-07-08T09:05:34.569Z,1029.18
2018-07-08T09:06:34.571Z,1029.23
2018-07-08T09:07:34.580Z,1029.41
2018-07-08T09:08:34.589Z,1029.59
2018-07-08T09:09:34.598Z,1029.87
2018-07-08T09:10:34.607Z,1030.15
2018-07-08T09:11:34.616Z,1030.55
2018-07-08T09:12:34.640Z,1030.85
2018-07-08T09:13:34.634Z,1031.09
2018-07-08T09:14:34.651Z,1031.24
2018-07-08T09:15:34.648Z,1031.37
2018-07-08T09:16:34.656Z,1031.48
2018-07-08T09:17:34.670Z,1031.63
2018-07-08T09:18:34.672Z,1031.8
2018-07-08T09:19:34.678Z,1031.82
2018-07-08T09:20:34.685Z,1031.99
2018-07-08T09:21:34.693Z,1032.1
2018-07-08T09:22:34.702Z,1032.04
2018-07-08T09:23:34.704Z,1032.1
2018-07-08T09:24:34.714Z,1032.1
2018-07-08T09:25:34.720Z,1032.11
2018-07-08T09:26:34.723Z,1032.11
2018-07-08T09:27:34.728Z,1032.1
2018-07-08T09:28:34.733Z,1032.18
2018-07-08T09:29:34.739Z,1032.2
2018-07-08T09:30:34.743Z,1032.16
2018-07-08T09:31:34.752Z,1032.08
2018-07-08T09:32:34.754Z,1032.1
2018-07-08T09:33:34.758Z,1032.05
2018-07-08T09:34:34.766Z,1032.01
2018-07-08T09:35:34.767Z,1032.11
2018-07-08T09:36:34.772Z,1032.2
2018-07-08T09:37:34.776Z,1032.23
2018-07-08T09:38:34.802Z,1032.27
2018-07-08T09:39:34.785Z,1032.39
2018-07-08T09:40:34.792Z,1032.41
2018-07-08T09:41:34.794Z,1032.38
2018-07-08T09:42:34.797Z,1032.25
2018-07-08T09:43:34.801Z,1032.15
2018-07-08T09:44:34.810Z,1032.15
2018-07-08T09:45:34.810Z,1032.2
2018-07-08T09:46:34.813Z,1032.23
2018-07-08T09:47:34.818Z,1032.34
2018-07-08T09:48:34.821Z,1032.42
2018-07-08T09:49:34.826Z,1032.47
2018-07-08T09:50:34.828Z,1032.45
2018-07-08T09:51:34.832Z,1032.46
2018-07-08T09:52:34.846Z,1032.37
2018-07-08T09:53:34.838Z,1032.29
2018-07-08T09:54:34.847Z,1032.17
2018-07-08T09:55:34.852Z,1031.93
2018-07-08T09:56:34.849Z,1031.65
2018-07-08T09:57:34.853Z,1031.53
2018-07-08T09:58:34.858Z,1031.45
2018-07-08T09:59:34.860Z,1031.32
2018-07-08T10:00:34.864Z,1031.27
2018-07-08T10:01:34.874Z,1031.35
2018-07-08T10:02:34.874Z,1031.36
2018-07-08T10:03:34.875Z,1031.41
2018-07-08T10:04:34.971Z,1031.35
2018-07-08T10:05:34.886Z,1031.32
2018-07-08T10:06:34.888Z,1031.32
2018-07-08T10:07:34.895Z,1031.18
2018-07-08T10:08:34.969Z,1031.1
2018-07-08T10:09:34.901Z,1030.89
2018-07-08T10:10:34.906Z,1030.88
2018-07-08T10:11:34.910Z,1030.86
2018-07-08T10:12:34.916Z,1030.84
2018-07-08T10:13:34.921Z,1030.78
2018-07-08T10:14:34.925Z,1030.81
2018-07-08T10:15:34.930Z,1030.86
2018-07-08T10:16:34.942Z,1030.9
2018-07-08T10:17:34.942Z,1031.01
2018-07-08T10:18:34.946Z,1031.06
2018-07-08T10:19:34.991Z,1031.05
2018-07-08T10:20:34.957Z,1030.99
2018-07-08T10:21:35.146Z,1031.07
2018-07-08T10:22:34.965Z,1031.03
2018-07-08T10:23:34.973Z,1031.14
2018-07-08T10:24:34.976Z,1031.23
2018-07-08T10:25:34.980Z,1031.26
2018-07-08T10:26:34.986Z,1031.28
2018-07-08T10:27:34.992Z,1031.31
2018-07-08T10:28:34.995Z,1031.44
2018-07-08T10:29:35.000Z,1031.49
2018-07-08T10:30:35.007Z,1031.54
2018-07-08T10:31:35.015Z,1031.57
2018-07-08T10:32:35.015Z,1031.65
2018-07-08T10:33:35.020Z,1031.7
2018-07-08T10:34:35.026Z,1031.8
2018-07-08T10:35:35.031Z,1031.86
2018-07-08T10:36:35.080Z,1031.94
2018-07-08T10:37:35.040Z,1031.94
2018-07-08T10:38:35.045Z,1031.96
2018-07-08T10:39:35.049Z,1031.81
2018-07-08T10:40:35.053Z,1031.53
2018-07-08T10:41:35.061Z,1031.59
2018-07-08T10:42:35.063Z,1031.54
2018-07-08T10:43:35.066Z,1031.6
2018-07-08T10:44:35.072Z,1031.74
2018-07-08T10:45:35.076Z,1031.61
2018-07-08T10:46:35.081Z,1031.36
2018-07-08T10:47:35.085Z,1031.21
2018-07-08T10:48:35.090Z,1030.95
2018-07-08T10:49:35.095Z,1030.82
2018-07-08T10:50:35.100Z,1030.75
2018-07-08T10:51:35.106Z,1030.72
2018-07-08T10:52:35.126Z,1030.64
2018-07-08T10:53:35.114Z,1030.59
2018-07-08T10:54:35.125Z,1030.63
2018-07-08T10:55:35.123Z,1030.72
2018-07-08T10:56:35.134Z,1030.83
2018-07-08T10:57:35.135Z,1030.75
2018-07-08T10:58:35.140Z,1030.75
2018-07-08T10:59:35.145Z,1030.67
2018-07-08T11:00:35.150Z,1030.73
2018-07-08T11:01:35.164Z,1030.96
2018-07-08T11:02:35.161Z,1031.06
2018-07-08T11:03:35.167Z,1031.2
2018-07-08T11:04:35.172Z,1031.27
2018-07-08T11:05:35.176Z,1031.2
2018-07-08T11:06:35.182Z,1031.24
2018-07-08T11:07:35.196Z,1031.19
2018-07-08T11:08:35.193Z,1031.08
2018-07-08T11:09:35.201Z,1030.98
2018-07-08T11:10:35.234Z,1030.81
2018-07-08T11:11:35.213Z,1030.77
2018-07-08T11:12:35.219Z,1030.75
2018-07-08T11:13:35.220Z,1030.78
2018-07-08T11:14:35.225Z,1030.73
2018-07-08T11:15:35.235Z,1030.67
2018-07-08T11:16:35.235Z,1030.67
2018-07-08T11:17:35.246Z,1030.61
2018-07-08T11:18:35.247Z,1030.55
2018-07-08T11:19:35.253Z,1030.56
2018-07-08T11:20:35.287Z,1030.61
2018-07-08T11:21:35.265Z,1030.54
2018-07-08T11:22:35.271Z,1030.54
2018-07-08T11:23:35.276Z,1030.49
2018-07-08T11:24:35.283Z,1030.36
2018-07-08T11:25:35.291Z,1030.33
2018-07-08T11:26:35.295Z,1030.24
2018-07-08T11:27:35.301Z,1030.16
2018-07-08T11:28:35.335Z,1030.11
2018-07-08T11:29:35.313Z,1030.14
2018-07-08T11:30:35.324Z,1030.15
2018-07-08T11:31:35.325Z,1030.06
2018-07-08T11:32:35.338Z,1030.11
2018-07-08T11:33:35.345Z,1030.12
2018-07-08T11:34:35.344Z,1030.08
2018-07-08T11:35:35.350Z,1030.02
2018-07-08T11:36:35.357Z,1029.93
2018-07-08T11:37:35.364Z,1029.81
2018-07-08T11:38:35.370Z,1029.87
2018-07-08T11:39:35.376Z,1030.18
2018-07-08T11:40:35.383Z,1030.23
2018-07-08T11:41:35.390Z,1030.51
2018-07-08T11:42:35.396Z,1030.8
2018-07-08T11:43:35.406Z,1030.99
2018-07-08T11:44:35.409Z,1031.17
2018-07-08T11:45:35.416Z,1031.19
2018-07-08T11:46:35.422Z,1031.18
2018-07-08T11:47:35.427Z,1031.05
2018-07-08T11:48:35.436Z,1030.86
2018-07-08T11:49:35.439Z,1030.78
2018-07-08T11:50:35.447Z,1030.74
2018-07-08T11:51:35.454Z,1030.81
2018-07-08T11:52:35.457Z,1030.83
2018-07-08T11:53:35.465Z,1030.86
2018-07-08T11:54:35.470Z,1030.9
2018-07-08T11:55:35.475Z,1030.94
2018-07-08T11:56:35.483Z,1031.06
2018-07-08T11:57:35.494Z,1031.11
2018-07-08T11:58:35.493Z,1031.16
2018-07-08T11:59:35.498Z,1031.2
2018-07-08T12:00:35.503Z,1031.2
2018-07-08T12:01:35.522Z,1031.25
2018-07-08T12:02:35.515Z,1031.21
2018-07-08T12:03:35.527Z,1031.07
2018-07-08T12:04:35.526Z,1030.87
2018-07-08T12:05:35.539Z,1030.78
2018-07-08T12:06:35.537Z,1030.65
2018-07-08T12:07:35.542Z,1030.6
2018-07-08T12:08:35.564Z,1030.65